createdAt,value
2017-04-08T00:00:06.501Z,59.90
2017-04-08T00:01:05.628Z,59.90
2017-04-08T00:02:04.749Z,59.70
2017-04-08T00:03:03.930Z,59.50
2017-04-08T00:04:03.039Z,59.50
2017-04-08T00:05:02.169Z,59.50
2017-04-08T00:06:01.319Z,59.20
2017-04-08T00:07:00.433Z,59.20
2017-04-08T00:07:59.550Z,60.00
2017-04-08T00:08:58.713Z,60.20
2017-04-08T00:09:57.882Z,60.20
2017-04-08T00:10:56.998Z,60.50
2017-04-08T00:11:56.106Z,60.60
2017-04-08T00:12:55.209Z,60.50
2017-04-08T00:13:55.143Z,60.40
2017-04-08T00:14:54.379Z,60.10
2017-04-08T00:15:53.517Z,59.70
2017-04-08T00:16:52.627Z,60.20
2017-04-08T00:17:51.749Z,60.50
2017-04-08T00:18:50.849Z,60.20
2017-04-08T00:19:49.962Z,60.50
2017-04-08T00:20:49.241Z,60.80
2017-04-08T00:21:48.355Z,60.90
2017-04-08T00:22:47.474Z,60.90
2017-04-08T00:23:46.586Z,60.90
2017-04-08T00:24:45.708Z,61.10
2017-04-08T00:25:44.835Z,60.90
2017-04-08T00:26:43.965Z,60.70
2017-04-08T00:27:43.335Z,61.20
2017-04-08T00:28:42.449Z,61.80
2017-04-08T00:29:41.573Z,61.90
2017-04-08T00:30:40.694Z,62.10
2017-04-08T00:31:39.813Z,62.10
2017-04-08T00:32:38.989Z,61.80
2017-04-08T00:33:38.125Z,62.10
2017-04-08T00:34:37.235Z,62.10
2017-04-08T00:35:36.378Z,62.10
2017-04-08T00:36:35.522Z,62.40
2017-04-08T00:37:34.648Z,62.10
2017-04-08T00:38:33.899Z,62.10
2017-04-08T00:39:33.025Z,61.90
2017-04-08T00:40:32.134Z,62.10
2017-04-08T00:41:31.270Z,62.10
2017-04-08T00:42:30.373Z,62.00
2017-04-08T00:43:29.485Z,62.40
2017-04-08T00:44:28.650Z,62.70
2017-04-08T00:45:27.761Z,62.90
2017-04-08T00:46:26.881Z,63.10
2017-04-08T00:47:26.006Z,63.00
2017-04-08T00:48:25.110Z,63.10
2017-04-08T00:49:24.224Z,63.20
2017-04-08T00:50:23.737Z,63.60
2017-04-08T00:51:22.832Z,63.60
2017-04-08T00:52:21.963Z,63.70
2017-04-08T00:53:21.081Z,64.40
2017-04-08T00:54:20.187Z,63.60
2017-04-08T00:55:19.293Z,63.20
2017-04-08T00:56:18.538Z,62.70
2017-04-08T00:57:17.654Z,62.40
2017-04-08T00:58:16.762Z,62.40
2017-04-08T00:59:15.910Z,62.70
2017-04-08T01:00:19.225Z,62.50
2017-04-08T01:01:23.861Z,62.60
2017-04-08T01:02:22.982Z,62.40
2017-04-08T01:03:22.126Z,62.30
2017-04-08T01:04:21.237Z,62.60
2017-04-08T01:05:20.342Z,62.80
2017-04-08T01:06:19.453Z,62.90
2017-04-08T01:07:18.597Z,62.80
2017-04-08T01:08:17.702Z,62.90
2017-04-08T01:09:16.809Z,63.00
2017-04-08T01:10:15.922Z,63.40
2017-04-08T01:11:15.038Z,63.60
2017-04-08T01:12:14.145Z,64.10
2017-04-08T01:13:13.306Z,64.00
2017-04-08T01:14:12.418Z,63.90
2017-04-08T01:15:11.542Z,63.90
2017-04-08T01:16:10.690Z,63.60
2017-04-08T01:17:09.805Z,63.30
2017-04-08T01:18:08.969Z,63.20
2017-04-08T01:19:08.151Z,63.00
2017-04-08T01:20:07.286Z,63.30
2017-04-08T01:21:06.426Z,63.40
2017-04-08T01:22:05.553Z,63.50
2017-04-08T01:23:04.913Z,63.30
2017-04-08T01:24:04.041Z,63.30
2017-04-08T01:25:03.297Z,63.20
2017-04-08T01:26:02.425Z,63.10
2017-04-08T01:27:01.563Z,63.20
2017-04-08T01:28:00.672Z,63.20
2017-04-08T01:28:59.793Z,63.50
2017-04-08T01:29:58.925Z,63.40
2017-04-08T01:30:58.139Z,63.80
2017-04-08T01:31:57.295Z,63.90
2017-04-08T01:32:56.499Z,63.90
2017-04-08T01:33:55.651Z,64.10
2017-04-08T01:34:54.831Z,64.90
2017-04-08T01:35:53.996Z,65.40
2017-04-08T01:36:53.207Z,66.40
2017-04-08T01:37:52.368Z,65.70
2017-04-08T01:38:51.519Z,65.80
2017-04-08T01:39:50.676Z,65.80
2017-04-08T01:40:49.826Z,65.40
2017-04-08T01:41:48.983Z,65.20
2017-04-08T01:42:48.184Z,64.80
2017-04-08T01:43:47.434Z,65.10
2017-04-08T01:44:46.624Z,65.00
2017-04-08T01:45:45.783Z,64.90
2017-04-08T01:46:44.946Z,65.00
2017-04-08T01:47:44.104Z,65.00
2017-04-08T01:48:43.303Z,64.70
2017-04-08T01:49:42.480Z,64.90
2017-04-08T01:50:41.635Z,65.00
2017-04-08T01:51:40.816Z,64.70
2017-04-08T01:52:39.968Z,64.50
2017-04-08T01:53:39.173Z,64.30
2017-04-08T01:54:38.781Z,64.20
2017-04-08T01:55:37.955Z,64.00
2017-04-08T01:56:37.099Z,63.80
2017-04-08T01:57:36.274Z,63.80
2017-04-08T01:58:35.436Z,63.60
2017-04-08T01:59:34.614Z,63.70
2017-04-08T02:00:34.157Z,63.70
2017-04-08T02:01:33.308Z,64.00
2017-04-08T02:02:32.543Z,64.00
2017-04-08T02:03:31.709Z,63.70
2017-04-08T02:04:30.893Z,63.60
2017-04-08T02:05:30.052Z,63.50
2017-04-08T02:06:29.551Z,63.50
2017-04-08T02:07:28.736Z,63.50
2017-04-08T02:08:27.919Z,63.20
2017-04-08T02:09:27.088Z,63.10
2017-04-08T02:10:26.260Z,62.80
2017-04-08T02:11:25.404Z,62.60
2017-04-08T02:12:24.632Z,62.30
2017-04-08T02:13:23.844Z,62.40
2017-04-08T02:14:23.023Z,62.50
2017-04-08T02:15:22.201Z,62.50
2017-04-08T02:16:21.395Z,62.30
2017-04-08T02:17:20.552Z,62.20
2017-04-08T02:18:19.772Z,62.00
2017-04-08T02:19:18.947Z,61.80
2017-04-08T02:20:18.171Z,61.60
2017-04-08T02:21:17.342Z,61.60
2017-04-08T02:22:16.528Z,61.40
2017-04-08T02:23:15.688Z,61.40
2017-04-08T02:24:14.915Z,61.30
2017-04-08T02:25:14.089Z,61.20
2017-04-08T02:26:13.295Z,61.10
2017-04-08T02:27:12.459Z,61.10
2017-04-08T02:28:11.607Z,61.00
2017-04-08T02:29:10.763Z,61.00
2017-04-08T02:30:10.028Z,60.90
2017-04-08T02:31:09.187Z,60.90
2017-04-08T02:32:08.347Z,60.90
2017-04-08T02:33:07.545Z,60.80
2017-04-08T02:34:06.708Z,60.80
2017-04-08T02:35:05.869Z,60.90
2017-04-08T02:36:05.072Z,60.70
2017-04-08T02:37:04.231Z,60.70
2017-04-08T02:38:03.417Z,60.60
2017-04-08T02:39:02.588Z,60.70
2017-04-08T02:40:01.752Z,61.10
2017-04-08T02:41:00.920Z,61.50
2017-04-08T02:42:00.140Z,61.60
2017-04-08T02:42:59.299Z,61.80
2017-04-08T02:43:58.500Z,62.00
2017-04-08T02:44:57.652Z,61.90
2017-04-08T02:45:56.817Z,62.40
2017-04-08T02:46:55.991Z,62.70
2017-04-08T02:47:55.184Z,62.90
2017-04-08T02:48:54.335Z,63.90
2017-04-08T02:49:53.506Z,63.20
2017-04-08T02:50:52.668Z,63.30
2017-04-08T02:51:51.856Z,63.20
2017-04-08T02:52:50.999Z,63.10
2017-04-08T02:53:50.196Z,63.20
2017-04-08T02:54:49.355Z,63.00
2017-04-08T02:55:48.514Z,63.00
2017-04-08T02:56:47.664Z,62.90
2017-04-08T02:57:46.817Z,62.80
2017-04-08T02:58:45.971Z,63.20
2017-04-08T02:59:45.167Z,63.80
2017-04-08T03:00:44.335Z,63.90
2017-04-08T03:01:43.500Z,63.90
2017-04-08T03:02:42.660Z,63.70
2017-04-08T03:03:41.803Z,64.20
2017-04-08T03:04:40.995Z,64.50
2017-04-08T03:05:40.219Z,64.40
2017-04-08T03:06:39.383Z,64.00
2017-04-08T03:07:38.531Z,64.30
2017-04-08T03:08:37.709Z,64.50
2017-04-08T03:09:36.871Z,64.40
2017-04-08T03:10:36.038Z,64.10
2017-04-08T03:11:35.287Z,64.10
2017-04-08T03:12:34.467Z,64.30
2017-04-08T03:13:33.643Z,64.40
2017-04-08T03:14:32.811Z,64.20
2017-04-08T03:15:31.976Z,64.00
2017-04-08T03:16:31.127Z,63.70
2017-04-08T03:17:30.476Z,63.50
2017-04-08T03:18:29.624Z,63.40
2017-04-08T03:19:28.772Z,63.40
2017-04-08T03:20:27.920Z,63.30
2017-04-08T03:21:27.072Z,63.10
2017-04-08T03:22:26.220Z,62.80
2017-04-08T03:23:25.411Z,63.90
2017-04-08T03:24:24.563Z,64.50
2017-04-08T03:25:23.745Z,64.60
2017-04-08T03:26:22.896Z,64.50
2017-04-08T03:27:22.039Z,64.50
2017-04-08T03:28:21.292Z,64.60
2017-04-08T03:29:20.483Z,64.60
2017-04-08T03:30:19.643Z,64.60
2017-04-08T03:31:18.796Z,64.60
2017-04-08T03:32:17.939Z,64.70
2017-04-08T03:33:17.151Z,64.90
2017-04-08T03:34:16.315Z,64.80
2017-04-08T03:35:15.523Z,64.90
2017-04-08T03:36:14.671Z,65.00
2017-04-08T03:37:13.828Z,65.10
2017-04-08T03:38:12.989Z,65.00
2017-04-08T03:39:12.147Z,64.80
2017-04-08T03:40:11.304Z,65.00
2017-04-08T03:41:10.583Z,65.00
2017-04-08T03:42:09.956Z,65.10
2017-04-08T03:43:09.131Z,65.10
2017-04-08T03:44:08.320Z,65.10
2017-04-08T03:45:07.472Z,65.10
2017-04-08T03:46:06.620Z,64.60
2017-04-08T03:47:05.804Z,64.50
2017-04-08T03:48:04.953Z,64.40
2017-04-08T03:49:04.096Z,64.40
2017-04-08T03:50:03.243Z,64.50
2017-04-08T03:51:02.395Z,64.70
2017-04-08T03:52:01.540Z,64.60
2017-04-08T03:53:01.115Z,64.70
2017-04-08T03:54:00.276Z,64.60
2017-04-08T03:54:59.427Z,64.20
2017-04-08T03:55:58.581Z,64.10
2017-04-08T03:56:57.735Z,64.10
2017-04-08T03:57:56.892Z,64.10
2017-04-08T03:58:56.155Z,64.30
2017-04-08T03:59:55.305Z,64.20
2017-04-08T04:00:54.456Z,64.00
2017-04-08T04:01:53.612Z,64.10
2017-04-08T04:02:52.759Z,63.90
2017-04-08T04:03:51.924Z,64.10
2017-04-08T04:04:51.439Z,63.80
2017-04-08T04:05:50.608Z,64.10
2017-04-08T04:06:49.764Z,64.40
2017-04-08T04:07:48.916Z,64.40
2017-04-08T04:08:48.101Z,64.60
2017-04-08T04:09:47.244Z,64.60
2017-04-08T04:10:46.428Z,64.70
2017-04-08T04:11:45.576Z,64.70
2017-04-08T04:12:44.727Z,64.70
2017-04-08T04:13:44.035Z,64.70
2017-04-08T04:14:43.175Z,64.60
2017-04-08T04:15:42.327Z,65.20
2017-04-08T04:16:41.961Z,64.40
2017-04-08T04:17:41.107Z,64.40
2017-04-08T04:18:40.251Z,64.60
2017-04-08T04:19:39.412Z,64.90
2017-04-08T04:20:38.571Z,65.20
2017-04-08T04:21:37.732Z,65.30
2017-04-08T04:22:36.920Z,65.40
2017-04-08T04:23:36.080Z,65.30
2017-04-08T04:24:35.239Z,65.30
2017-04-08T04:25:34.396Z,65.30
2017-04-08T04:26:33.550Z,65.40
2017-04-08T04:27:32.700Z,65.70
2017-04-08T04:28:31.896Z,65.90
2017-04-08T04:29:31.057Z,65.70
2017-04-08T04:30:30.204Z,65.70
2017-04-08T04:31:29.383Z,65.70
2017-04-08T04:32:28.516Z,65.30
2017-04-08T04:33:27.703Z,65.30
2017-04-08T04:34:26.900Z,65.20
2017-04-08T04:35:26.053Z,64.90
2017-04-08T04:36:25.206Z,64.60
2017-04-08T04:37:24.589Z,64.80
2017-04-08T04:38:23.747Z,64.60
2017-04-08T04:39:22.921Z,65.50
2017-04-08T04:40:22.187Z,64.40
2017-04-08T04:41:21.328Z,64.10
2017-04-08T04:42:20.484Z,64.30
2017-04-08T04:43:19.633Z,64.30
2017-04-08T04:44:18.815Z,64.10
2017-04-08T04:45:17.980Z,63.60
2017-04-08T04:46:17.183Z,63.50
2017-04-08T04:47:16.335Z,63.50
2017-04-08T04:48:15.487Z,64.00
2017-04-08T04:49:14.640Z,64.20
2017-04-08T04:50:13.788Z,64.30
2017-04-08T04:51:12.944Z,64.20
2017-04-08T04:52:12.445Z,64.00
2017-04-08T04:53:11.595Z,63.80
2017-04-08T04:54:10.781Z,63.70
2017-04-08T04:55:09.939Z,63.80
2017-04-08T04:56:09.100Z,63.50
2017-04-08T04:57:08.276Z,63.40
2017-04-08T04:58:07.741Z,63.60
2017-04-08T04:59:06.880Z,64.00
2017-04-08T05:00:06.036Z,64.00
2017-04-08T05:01:05.232Z,64.00
2017-04-08T05:02:04.396Z,63.90
2017-04-08T05:03:03.566Z,64.30
2017-04-08T05:04:02.771Z,64.30
2017-04-08T05:05:01.927Z,64.20
2017-04-08T05:06:01.099Z,64.10
2017-04-08T05:07:00.256Z,64.00
2017-04-08T05:07:59.443Z,63.80
2017-04-08T05:08:58.596Z,63.90
2017-04-08T05:09:57.823Z,64.10
2017-04-08T05:10:56.967Z,64.00
2017-04-08T05:11:56.121Z,64.10
2017-04-08T05:12:55.263Z,63.90
2017-04-08T05:13:54.463Z,63.70
2017-04-08T05:14:53.658Z,63.70
2017-04-08T05:15:52.931Z,63.40
2017-04-08T05:16:52.079Z,63.10
2017-04-08T05:17:51.232Z,63.10
2017-04-08T05:18:50.380Z,63.00
2017-04-08T05:19:49.531Z,63.10
2017-04-08T05:20:48.696Z,63.40
2017-04-08T05:21:47.891Z,63.40
2017-04-08T05:22:47.040Z,63.30
2017-04-08T05:23:46.196Z,63.30
2017-04-08T05:24:45.356Z,63.30
2017-04-08T05:25:44.500Z,63.10
2017-04-08T05:26:43.662Z,63.10
2017-04-08T05:27:42.860Z,63.40
2017-04-08T05:28:42.045Z,63.40
2017-04-08T05:29:41.199Z,63.20
2017-04-08T05:30:40.348Z,63.20
2017-04-08T05:31:39.499Z,63.20
2017-04-08T05:32:38.675Z,63.10
2017-04-08T05:33:37.891Z,63.10
2017-04-08T05:34:37.084Z,63.00
2017-04-08T05:35:36.232Z,63.30
2017-04-08T05:36:35.631Z,63.80
2017-04-08T05:37:34.775Z,64.00
2017-04-08T05:38:33.915Z,64.00
2017-04-08T05:39:33.113Z,64.00
2017-04-08T05:40:32.276Z,64.30
2017-04-08T05:41:31.423Z,64.20
2017-04-08T05:42:30.575Z,64.20
2017-04-08T05:43:29.724Z,63.80
2017-04-08T05:44:28.872Z,63.90
2017-04-08T05:45:28.057Z,63.80
2017-04-08T05:46:27.224Z,63.60
2017-04-08T05:47:26.368Z,63.60
2017-04-08T05:48:25.531Z,63.50
2017-04-08T05:49:24.684Z,63.40
2017-04-08T05:50:23.835Z,63.30
2017-04-08T05:51:23.033Z,63.30
2017-04-08T05:52:22.187Z,63.50
2017-04-08T05:53:21.344Z,63.40
2017-04-08T05:54:20.504Z,63.40
2017-04-08T05:55:19.704Z,63.40
2017-04-08T05:56:18.871Z,63.20
2017-04-08T05:57:18.073Z,63.10
2017-04-08T05:58:17.219Z,63.40
2017-04-08T05:59:16.373Z,63.60
2017-04-08T06:00:15.540Z,63.80
2017-04-08T06:01:14.756Z,63.50
2017-04-08T06:02:13.955Z,63.80
2017-04-08T06:03:13.151Z,63.90
2017-04-08T06:04:12.312Z,64.40
2017-04-08T06:05:11.492Z,64.40
2017-04-08T06:06:10.668Z,64.70
2017-04-08T06:07:09.851Z,65.10
2017-04-08T06:08:09.025Z,64.70
2017-04-08T06:09:08.208Z,64.90
2017-04-08T06:10:07.375Z,65.10
2017-04-08T06:11:06.526Z,65.20
2017-04-08T06:12:05.708Z,65.20
2017-04-08T06:13:04.880Z,64.90
2017-04-08T06:14:04.195Z,64.50
2017-04-08T06:15:03.403Z,65.20
2017-04-08T06:16:02.605Z,65.10
2017-04-08T06:17:01.783Z,65.40
2017-04-08T06:18:00.932Z,65.80
2017-04-08T06:19:00.125Z,65.60
2017-04-08T06:19:59.279Z,65.40
2017-04-08T06:20:58.792Z,65.20
2017-04-08T06:21:57.939Z,65.30
2017-04-08T06:22:57.087Z,65.00
2017-04-08T06:23:56.241Z,64.80
2017-04-08T06:24:55.391Z,64.30
2017-04-08T06:25:54.536Z,64.00
2017-04-08T06:26:53.820Z,64.40
2017-04-08T06:27:52.973Z,64.10
2017-04-08T06:28:52.123Z,63.80
2017-04-08T06:29:51.271Z,63.30
2017-04-08T06:30:50.429Z,63.10
2017-04-08T06:31:49.575Z,63.00
2017-04-08T06:32:49.099Z,62.90
2017-04-08T06:33:48.268Z,62.70
2017-04-08T06:34:47.444Z,62.50
2017-04-08T06:35:46.587Z,62.40
2017-04-08T06:36:45.744Z,61.90
2017-04-08T06:37:44.899Z,62.00
2017-04-08T06:38:44.258Z,61.50
2017-04-08T06:39:43.433Z,61.30
2017-04-08T06:40:42.575Z,60.50
2017-04-08T06:41:41.724Z,60.40
2017-04-08T06:42:40.880Z,61.00
2017-04-08T06:43:40.037Z,61.20
2017-04-08T06:44:39.232Z,61.30
2017-04-08T06:45:38.375Z,61.50
2017-04-08T06:46:37.802Z,61.10
2017-04-08T06:47:36.980Z,61.00
2017-04-08T06:48:36.136Z,61.10
2017-04-08T06:49:35.296Z,60.80
2017-04-08T06:50:34.500Z,61.00
2017-04-08T06:51:33.643Z,61.00
2017-04-08T06:52:32.828Z,61.10
2017-04-08T06:53:32.016Z,61.00
2017-04-08T06:54:31.452Z,60.90
2017-04-08T06:55:30.616Z,60.90
2017-04-08T06:56:30.120Z,61.10
2017-04-08T06:57:29.295Z,61.00
2017-04-08T06:58:28.461Z,61.10
2017-04-08T06:59:27.625Z,61.10
2017-04-08T07:00:26.776Z,60.90
2017-04-08T07:01:26.240Z,60.70
2017-04-08T07:02:27.927Z,60.70
2017-04-08T07:03:27.114Z,60.30
2017-04-08T07:04:26.355Z,59.80
2017-04-08T07:05:25.535Z,59.60
2017-04-08T07:06:24.683Z,59.60
2017-04-08T07:07:23.860Z,59.60
2017-04-08T07:08:23.079Z,59.40
2017-04-08T07:09:22.240Z,59.50
2017-04-08T07:10:21.392Z,59.30
2017-04-08T07:11:20.547Z,59.10
2017-04-08T07:12:19.687Z,59.00
2017-04-08T07:13:18.827Z,58.80
2017-04-08T07:14:18.059Z,58.70
2017-04-08T07:15:17.228Z,58.60
2017-04-08T07:16:16.392Z,58.60
2017-04-08T07:17:15.543Z,58.20
2017-04-08T07:18:14.947Z,58.50
2017-04-08T07:19:14.100Z,58.50
2017-04-08T07:20:13.312Z,58.90
2017-04-08T07:21:12.479Z,59.40
2017-04-08T07:22:11.623Z,59.60
2017-04-08T07:23:10.777Z,59.40
2017-04-08T07:24:09.931Z,59.60
2017-04-08T07:25:09.121Z,59.70
2017-04-08T07:26:08.295Z,59.10
2017-04-08T07:27:07.467Z,59.40
2017-04-08T07:28:06.664Z,59.30
2017-04-08T07:29:05.833Z,59.00
2017-04-08T07:30:05.008Z,58.70
2017-04-08T07:31:04.375Z,58.30
2017-04-08T07:32:03.552Z,58.10
2017-04-08T07:33:02.716Z,58.10
2017-04-08T07:34:01.875Z,58.70
2017-04-08T07:35:01.027Z,59.20
2017-04-08T07:36:00.197Z,59.50
2017-04-08T07:36:59.497Z,59.90
2017-04-08T07:37:58.676Z,59.90
2017-04-08T07:38:57.852Z,59.60
2017-04-08T07:39:57.027Z,59.40
2017-04-08T07:40:56.209Z,58.90
2017-04-08T07:41:55.380Z,59.10
2017-04-08T07:42:54.561Z,58.90
2017-04-08T07:43:53.741Z,58.70
2017-04-08T07:44:52.909Z,58.50
2017-04-08T07:45:52.079Z,57.80
2017-04-08T07:46:51.279Z,57.50
2017-04-08T07:47:50.458Z,57.20
2017-04-08T07:48:49.636Z,57.00
2017-04-08T07:49:48.816Z,57.20
2017-04-08T07:50:47.989Z,57.10
2017-04-08T07:51:47.181Z,56.80
2017-04-08T07:52:46.496Z,56.60
2017-04-08T07:53:45.667Z,56.20
2017-04-08T07:54:44.848Z,55.80
2017-04-08T07:55:44.024Z,55.50
2017-04-08T07:56:43.216Z,54.80
2017-04-08T07:57:42.394Z,54.50
2017-04-08T07:58:41.568Z,54.10
2017-04-08T07:59:40.747Z,53.70
2017-04-08T08:00:39.973Z,53.60
2017-04-08T08:01:39.149Z,53.30
2017-04-08T08:02:38.333Z,52.70
2017-04-08T08:03:37.555Z,52.40
2017-04-08T08:04:36.740Z,52.10
2017-04-08T08:05:35.922Z,52.20
2017-04-08T08:06:35.108Z,51.80
2017-04-08T08:07:34.286Z,51.50
2017-04-08T08:08:33.506Z,51.30
2017-04-08T08:09:32.737Z,51.00
2017-04-08T08:10:31.919Z,50.20
2017-04-08T08:11:31.091Z,50.50
2017-04-08T08:12:30.264Z,51.00
2017-04-08T08:13:29.428Z,51.30
2017-04-08T08:14:28.600Z,51.20
2017-04-08T08:15:28.248Z,51.40
2017-04-08T08:16:27.549Z,51.10
2017-04-08T08:17:26.732Z,51.00
2017-04-08T08:18:25.960Z,51.20
2017-04-08T08:19:25.141Z,51.10
2017-04-08T08:20:24.336Z,50.40
2017-04-08T08:21:23.569Z,50.40
2017-04-08T08:22:22.740Z,50.40
2017-04-08T08:23:21.916Z,50.00
2017-04-08T08:24:21.089Z,50.00
2017-04-08T08:25:20.271Z,49.80
2017-04-08T08:26:19.454Z,49.40
2017-04-08T08:27:18.694Z,49.20
2017-04-08T08:28:17.896Z,49.10
2017-04-08T08:29:17.085Z,48.60
2017-04-08T08:30:16.268Z,48.60
2017-04-08T08:31:15.661Z,48.80
2017-04-08T08:32:14.849Z,49.00
2017-04-08T08:33:14.112Z,49.20
2017-04-08T08:34:13.357Z,49.30
2017-04-08T08:35:12.549Z,49.60
2017-04-08T08:36:11.719Z,50.00
2017-04-08T08:37:10.905Z,50.60
2017-04-08T08:38:10.090Z,50.80
2017-04-08T08:39:09.272Z,50.40
2017-04-08T08:40:08.465Z,50.30
2017-04-08T08:41:07.668Z,49.70
2017-04-08T08:42:06.884Z,49.60
2017-04-08T08:43:06.059Z,49.20
2017-04-08T08:44:05.276Z,48.50
2017-04-08T08:45:04.484Z,48.50
2017-04-08T08:46:03.981Z,48.70
2017-04-08T08:47:03.884Z,48.60
2017-04-08T08:48:03.114Z,47.90
2017-04-08T08:49:02.289Z,48.70
2017-04-08T08:50:01.468Z,49.30
2017-04-08T08:51:00.944Z,49.30
2017-04-08T08:52:01.633Z,48.90
2017-04-08T08:53:00.824Z,49.20
2017-04-08T08:54:00.010Z,49.40
2017-04-08T08:54:59.240Z,49.50
2017-04-08T08:55:58.416Z,49.80
2017-04-08T08:56:57.596Z,49.40
2017-04-08T08:57:56.784Z,48.90
2017-04-08T08:58:55.973Z,49.10
2017-04-08T08:59:55.152Z,49.40
2017-04-08T09:00:54.377Z,48.70
2017-04-08T09:01:53.536Z,49.50
2017-04-08T09:02:52.713Z,50.80
2017-04-08T09:03:52.293Z,50.00
2017-04-08T09:04:51.481Z,50.00
2017-04-08T09:05:50.676Z,49.80
2017-04-08T09:06:49.897Z,49.70
2017-04-08T09:07:49.081Z,49.20
2017-04-08T09:08:48.267Z,49.40
2017-04-08T09:09:47.449Z,49.50
2017-04-08T09:10:46.670Z,50.00
2017-04-08T09:11:45.849Z,50.20
2017-04-08T09:12:45.209Z,49.90
2017-04-08T09:13:44.540Z,49.60
2017-04-08T09:14:43.801Z,49.50
2017-04-08T09:15:42.982Z,49.50
2017-04-08T09:16:42.213Z,49.20
2017-04-08T09:17:41.390Z,48.80
2017-04-08T09:18:40.697Z,49.50
2017-04-08T09:19:39.945Z,49.80
2017-04-08T09:20:39.121Z,49.80
2017-04-08T09:21:38.301Z,49.50
2017-04-08T09:22:37.489Z,48.90
2017-04-08T09:23:36.674Z,49.20
2017-04-08T09:24:36.252Z,50.00
2017-04-08T09:25:35.444Z,50.90
2017-04-08T09:26:34.620Z,51.40
2017-04-08T09:27:33.836Z,51.00
2017-04-08T09:28:33.110Z,51.10
2017-04-08T09:29:32.332Z,51.00
2017-04-08T09:30:31.548Z,50.90
2017-04-08T09:31:30.725Z,50.90
2017-04-08T09:32:29.915Z,50.40
2017-04-08T09:33:29.102Z,50.20
2017-04-08T09:34:28.275Z,50.60
2017-04-08T09:35:27.445Z,50.60
2017-04-08T09:36:26.683Z,50.00
2017-04-08T09:37:25.858Z,50.20
2017-04-08T09:38:25.028Z,50.10
2017-04-08T09:39:24.213Z,50.20
2017-04-08T09:40:23.396Z,49.80
2017-04-08T09:41:22.572Z,49.30
2017-04-08T09:42:21.893Z,49.00
2017-04-08T09:43:21.238Z,48.70
2017-04-08T09:44:20.461Z,49.50
2017-04-08T09:45:19.690Z,50.00
2017-04-08T09:46:18.898Z,50.60
2017-04-08T09:47:18.085Z,50.60
2017-04-08T09:48:17.317Z,50.60
2017-04-08T09:49:16.497Z,50.80
2017-04-08T09:50:15.716Z,51.00
2017-04-08T09:51:14.917Z,51.40
2017-04-08T09:52:14.096Z,51.20
2017-04-08T09:53:13.279Z,51.00
2017-04-08T09:54:12.486Z,50.40
2017-04-08T09:55:11.673Z,49.90
2017-04-08T09:56:10.844Z,49.40
2017-04-08T09:57:10.021Z,49.00
2017-04-08T09:58:09.206Z,48.60
2017-04-08T09:59:08.428Z,47.80
2017-04-08T10:00:07.615Z,47.10
2017-04-08T10:01:06.863Z,46.70
2017-04-08T10:02:06.044Z,46.20
2017-04-08T10:03:05.224Z,45.50
2017-04-08T10:04:04.396Z,46.30
2017-04-08T10:05:03.580Z,47.10
2017-04-08T10:06:02.760Z,47.10
2017-04-08T10:07:01.978Z,47.10
2017-04-08T10:08:01.160Z,47.90
2017-04-08T10:09:00.333Z,47.20
2017-04-08T10:09:59.961Z,47.20
2017-04-08T10:10:59.135Z,47.30
2017-04-08T10:11:58.350Z,46.70
2017-04-08T10:12:57.671Z,46.50
2017-04-08T10:13:56.861Z,46.60
2017-04-08T10:14:56.093Z,47.20
2017-04-08T10:15:55.283Z,46.20
2017-04-08T10:16:54.555Z,45.90
2017-04-08T10:17:53.751Z,45.70
2017-04-08T10:18:52.954Z,45.20
2017-04-08T10:19:52.221Z,45.00
2017-04-08T10:20:51.455Z,44.60
2017-04-08T10:21:50.754Z,44.20
2017-04-08T10:22:49.978Z,44.30
2017-04-08T10:23:49.190Z,44.00
2017-04-08T10:24:48.410Z,43.30
2017-04-08T10:25:47.885Z,43.20
2017-04-08T10:26:47.124Z,43.00
2017-04-08T10:27:46.306Z,42.70
2017-04-08T10:28:45.496Z,42.30
2017-04-08T10:29:44.680Z,41.80
2017-04-08T10:30:43.849Z,41.40
2017-04-08T10:31:43.420Z,42.30
2017-04-08T10:32:42.604Z,42.60
2017-04-08T10:33:41.843Z,42.40
2017-04-08T10:34:41.021Z,42.30
2017-04-08T10:35:40.191Z,42.50
2017-04-08T10:36:39.369Z,42.50
2017-04-08T10:37:38.583Z,42.90
2017-04-08T10:38:37.748Z,43.50
2017-04-08T10:39:36.933Z,43.50
2017-04-08T10:40:36.122Z,43.50
2017-04-08T10:41:35.300Z,43.60
2017-04-08T10:42:34.476Z,43.90
2017-04-08T10:43:34.277Z,43.70
2017-04-08T10:44:34.035Z,44.10
2017-04-08T10:45:33.734Z,43.70
2017-04-08T10:46:34.130Z,43.90
2017-04-08T10:47:34.487Z,43.70
2017-04-08T10:48:34.330Z,43.20
2017-04-08T10:49:33.996Z,43.00
2017-04-08T10:50:33.759Z,43.10
2017-04-08T10:51:33.626Z,42.80
2017-04-08T10:52:33.395Z,41.70
2017-04-08T10:53:33.331Z,41.40
2017-04-08T10:54:33.147Z,41.50
2017-04-08T10:55:33.198Z,41.60
2017-04-08T10:56:32.948Z,42.40
2017-04-08T10:57:32.696Z,43.10
2017-04-08T10:58:32.413Z,42.90
2017-04-08T10:59:32.198Z,43.10
2017-04-08T11:00:32.102Z,42.90
2017-04-08T11:01:31.926Z,42.50
2017-04-08T11:02:32.604Z,41.90
2017-04-08T11:03:32.309Z,41.30
2017-04-08T11:04:32.158Z,40.80
2017-04-08T11:05:31.911Z,41.20
2017-04-08T11:06:31.720Z,41.50
2017-04-08T11:07:30.913Z,40.60
2017-04-08T11:08:30.431Z,40.60
2017-04-08T11:09:30.160Z,40.20
2017-04-08T11:10:29.661Z,40.40
2017-04-08T11:11:29.378Z,41.40
2017-04-08T11:12:29.087Z,41.70
2017-04-08T11:13:29.059Z,41.60
2017-04-08T11:14:28.806Z,41.90
2017-04-08T11:15:28.392Z,42.20
2017-04-08T11:16:27.652Z,41.40
2017-04-08T11:17:26.958Z,41.50
2017-04-08T11:18:26.664Z,41.20
2017-04-08T11:19:26.145Z,41.20
2017-04-08T11:20:25.673Z,41.60
2017-04-08T11:21:25.092Z,41.90
2017-04-08T11:22:24.276Z,40.90
2017-04-08T11:23:23.465Z,40.00
2017-04-08T11:24:22.990Z,40.10
2017-04-08T11:25:22.166Z,40.20
2017-04-08T11:26:21.338Z,39.80
2017-04-08T11:27:20.513Z,39.70
2017-04-08T11:28:19.696Z,39.80
2017-04-08T11:29:18.873Z,39.70
2017-04-08T11:30:18.073Z,39.50
2017-04-08T11:31:17.283Z,39.40
2017-04-08T11:32:16.814Z,39.10
2017-04-08T11:33:15.985Z,39.00
2017-04-08T11:34:15.201Z,38.50
2017-04-08T11:35:14.381Z,38.90
2017-04-08T11:36:13.556Z,38.90
2017-04-08T11:37:12.765Z,39.30
2017-04-08T11:38:11.927Z,40.20
2017-04-08T11:39:11.121Z,40.60
2017-04-08T11:40:10.357Z,40.50
2017-04-08T11:41:09.544Z,40.10
2017-04-08T11:42:08.707Z,39.80
2017-04-08T11:43:07.880Z,39.70
2017-04-08T11:44:07.055Z,40.10
2017-04-08T11:45:06.233Z,40.60
2017-04-08T11:46:05.532Z,40.60
2017-04-08T11:47:04.713Z,40.60
2017-04-08T11:48:03.892Z,39.80
2017-04-08T11:49:03.065Z,38.50
2017-04-08T11:50:02.245Z,38.40
2017-04-08T11:51:01.461Z,38.30
2017-04-08T11:52:00.697Z,38.30
2017-04-08T11:52:59.869Z,38.30
2017-04-08T11:53:59.048Z,38.60
2017-04-08T11:54:58.220Z,38.90
2017-04-08T11:55:57.411Z,39.10
2017-04-08T11:56:56.601Z,39.20
2017-04-08T11:57:55.901Z,39.40
2017-04-08T11:58:55.076Z,39.40
2017-04-08T11:59:54.250Z,39.40
2017-04-08T12:00:53.430Z,39.40
2017-04-08T12:01:52.613Z,39.70
2017-04-08T12:02:51.786Z,39.60
2017-04-08T12:03:51.013Z,39.10
2017-04-08T12:04:50.188Z,39.50
2017-04-08T12:05:49.365Z,39.40
2017-04-08T12:06:48.544Z,39.40
2017-04-08T12:07:47.715Z,39.50
2017-04-08T12:08:46.898Z,39.50
2017-04-08T12:09:46.225Z,39.40
2017-04-08T12:10:45.448Z,38.60
2017-04-08T12:11:44.673Z,38.50
2017-04-08T12:12:43.864Z,38.30
2017-04-08T12:13:43.036Z,38.10
2017-04-08T12:14:42.224Z,37.40
2017-04-08T12:15:41.457Z,37.10
2017-04-08T12:16:40.668Z,37.10
2017-04-08T12:17:39.880Z,37.20
2017-04-08T12:18:39.065Z,37.00
2017-04-08T12:19:38.273Z,36.50
2017-04-08T12:20:37.481Z,36.80
2017-04-08T12:21:36.720Z,37.20
2017-04-08T12:22:36.145Z,37.40
2017-04-08T12:23:35.332Z,37.50
2017-04-08T12:24:34.496Z,37.70
2017-04-08T12:25:33.676Z,37.90
2017-04-08T12:26:32.849Z,38.40
2017-04-08T12:27:32.081Z,38.50
2017-04-08T12:28:31.273Z,39.10
2017-04-08T12:29:30.454Z,39.40
2017-04-08T12:30:29.636Z,39.90
2017-04-08T12:31:28.826Z,39.50
2017-04-08T12:32:28.001Z,40.20
2017-04-08T12:33:27.351Z,39.80
2017-04-08T12:34:26.532Z,39.90
2017-04-08T12:35:25.720Z,40.20
2017-04-08T12:36:24.913Z,39.40
2017-04-08T12:37:24.105Z,38.90
2017-04-08T12:38:23.301Z,38.70
2017-04-08T12:39:22.537Z,38.80
2017-04-08T12:40:21.713Z,38.80
2017-04-08T12:41:20.880Z,38.60
2017-04-08T12:42:20.112Z,38.10